createdAt,value
2018-09-05T00:00:59.953Z,101814.06
2018-09-05T00:03:28.905Z,101813.17
2018-09-05T00:05:57.442Z,101810.17
2018-09-05T00:08:26.721Z,101813.42
2018-09-05T00:10:55.874Z,101805.38
2018-09-05T00:13:25.149Z,101804.31
2018-09-05T00:15:53.794Z,101818.03
2018-09-05T00:18:22.230Z,101813.67
2018-09-05T00:20:50.654Z,101815.42
2018-09-05T00:23:19.242Z,101814.06
2018-09-05T00:25:48.352Z,101813.56
2018-09-05T00:28:16.781Z,101813.98
2018-09-05T00:30:46.197Z,101815.78
2018-09-05T00:33:14.645Z,101817.13
2018-09-05T00:35:43.392Z,101812.23
2018-09-05T00:38:11.975Z,101810.34
2018-09-05T00:40:40.962Z,101811.12
2018-09-05T00:43:10.397Z,101819.13
2018-09-05T00:45:38.977Z,101813.02
2018-09-05T00:48:07.433Z,101811.27
2018-09-05T00:50:36.413Z,101811.77
2018-09-05T00:53:04.881Z,101811.73
2018-09-05T00:55:33.893Z,101811.66
2018-09-05T00:58:02.558Z,101809.02
2018-09-05T01:00:31.162Z,101813.59
2018-09-05T01:02:59.950Z,101813.63
2018-09-05T01:05:29.105Z,101812.28
2018-09-05T01:07:58.502Z,101813.41
2018-09-05T01:10:28.333Z,101819.02
2018-09-05T01:12:57.327Z,101812.02
2018-09-05T01:15:25.951Z,101810.23
2018-09-05T01:17:54.389Z,101812.69
2018-09-05T01:20:22.846Z,101809.42
2018-09-05T01:22:51.293Z,101817.20
2018-09-05T01:25:20.153Z,101813.97
2018-09-05T01:27:48.610Z,101816.15
2018-09-05T01:30:17.061Z,101813.63
2018-09-05T01:32:45.482Z,101816.73
2018-09-05T01:35:14.237Z,101817.20
2018-09-05T01:37:42.785Z,101814.55
2018-09-05T01:40:11.212Z,101815.69
2018-09-05T01:42:39.678Z,101824.08
2018-09-05T01:45:08.165Z,101819.06
2018-09-05T01:47:36.702Z,101818.12
2018-09-05T01:50:05.155Z,101831.25
2018-09-05T01:52:34.265Z,101833.42
2018-09-05T01:55:02.761Z,101829.81
2018-09-05T01:57:31.377Z,101832.33
2018-09-05T01:59:59.843Z,101822.45
2018-09-05T02:02:28.762Z,101827.44
2018-09-05T02:04:57.729Z,101822.50
2018-09-05T02:07:26.477Z,101838.08
2018-09-05T02:09:54.924Z,101840.33
2018-09-05T02:12:23.373Z,101836.29
2018-09-05T02:14:52.345Z,101840.30
2018-09-05T02:17:20.789Z,101836.67
2018-09-05T02:19:49.258Z,101832.67
2018-09-05T02:22:17.709Z,101833.95
2018-09-05T02:24:46.153Z,101829.02
2018-09-05T02:27:14.837Z,101837.57
2018-09-05T02:29:44.399Z,101829.73
2018-09-05T02:32:12.918Z,101840.41
2018-09-05T02:34:41.361Z,101838.67
2018-09-05T02:37:09.965Z,101834.55
2018-09-05T02:39:38.425Z,101841.66
2018-09-05T02:42:06.869Z,101845.02
2018-09-05T02:44:35.477Z,101850.77
2018-09-05T02:47:03.925Z,101847.63
2018-09-05T02:49:32.385Z,101846.69
2018-09-05T02:52:01.005Z,101843.58
2018-09-05T02:54:29.446Z,101847.54
2018-09-05T02:56:57.873Z,101847.54
2018-09-05T02:59:26.445Z,101843.58
2018-09-05T03:01:54.892Z,101845.41
2018-09-05T03:04:23.347Z,101847.58
2018-09-05T03:06:51.941Z,101845.71
2018-09-05T03:09:20.383Z,101844.73
2018-09-05T03:11:48.880Z,101848.23
2018-09-05T03:14:17.343Z,101849.03
2018-09-05T03:16:46.633Z,101848.14
2018-09-05T03:19:15.072Z,101853.38
2018-09-05T03:21:43.545Z,101849.38
2018-09-05T03:24:11.988Z,101854.23
2018-09-05T03:26:40.444Z,101865.55
2018-09-05T03:29:09.234Z,101855.30
2018-09-05T03:31:38.213Z,101856.02
2018-09-05T03:34:06.683Z,101864.73
2018-09-05T03:36:35.137Z,101861.08
2018-09-05T03:39:04.613Z,101869.55
2018-09-05T03:41:33.061Z,101856.02
2018-09-05T03:44:01.513Z,101860.44
2018-09-05T03:46:30.153Z,101856.61
2018-09-05T03:48:58.598Z,101859.34
2018-09-05T03:51:27.531Z,101864.32
2018-09-05T03:53:56.019Z,101862.62
2018-09-05T03:56:24.440Z,101862.48
2018-09-05T03:58:53.141Z,101862.53
2018-09-05T04:01:22.452Z,101866.11
2018-09-05T04:03:51.029Z,101868.88
2018-09-05T04:06:20.532Z,101865.42
2018-09-05T04:08:50.008Z,101864.91
2018-09-05T04:11:18.484Z,101869.26
2018-09-05T04:13:47.138Z,101869.17
2018-09-05T04:16:15.564Z,101874.03
2018-09-05T04:18:44.157Z,101867.42
2018-09-05T04:21:12.623Z,101865.25
2018-09-05T04:23:48.295Z,101877.34
2018-09-05T04:26:18.089Z,101878.28
2018-09-05T04:28:46.557Z,101882.25
2018-09-05T04:31:15.720Z,101883.65
2018-09-05T04:33:46.411Z,101879.34
2018-09-05T04:36:15.553Z,101878.07
2018-09-05T04:38:44.437Z,101880.67
2018-09-05T04:41:13.060Z,101884.63
2018-09-05T04:43:41.629Z,101887.70
2018-09-05T04:46:11.010Z,101886.80
2018-09-05T04:48:40.374Z,101883.69
2018-09-05T04:51:08.813Z,101892.59
2018-09-05T04:53:37.264Z,101897.06
2018-09-05T04:56:06.106Z,101897.58
2018-09-05T04:58:34.593Z,101895.44
2018-09-05T05:01:03.033Z,101899.53
2018-09-05T05:03:32.173Z,101897.83
2018-09-05T05:06:01.414Z,101897.36
2018-09-05T05:08:29.863Z,101905.79
2018-09-05T05:10:58.387Z,101896.33
2018-09-05T05:13:27.030Z,101900.37
2018-09-05T05:15:55.465Z,101896.02
2018-09-05T05:18:24.250Z,101895.63
2018-09-05T05:20:53.434Z,101891.75
2018-09-05T05:23:21.886Z,101893.58
2018-09-05T05:25:50.487Z,101891.56
2018-09-05T05:28:18.981Z,101891.72
2018-09-05T05:30:47.516Z,101886.20
2018-09-05T05:33:16.717Z,101887.75
2018-09-05T05:35:45.641Z,101894.70
2018-09-05T05:38:14.087Z,101889.64
2018-09-05T05:40:43.264Z,101893.75
2018-09-05T05:43:11.749Z,101893.31
2018-09-05T05:45:40.210Z,101897.21
2018-09-05T05:48:08.757Z,101893.17
2018-09-05T05:50:37.181Z,101892.67
2018-09-05T05:53:05.753Z,101896.56
2018-09-05T05:55:34.333Z,101897.03
2018-09-05T05:58:02.761Z,101896.17
2018-09-05T06:00:31.224Z,101894.92
2018-09-05T06:02:59.767Z,101897.72
2018-09-05T06:05:28.206Z,101904.47
2018-09-05T06:07:56.921Z,101909.47
2018-09-05T06:10:27.971Z,101907.41
2018-09-05T06:12:58.889Z,101914.09
2018-09-05T06:15:28.205Z,101914.66
2018-09-05T06:17:56.890Z,101883.95
2018-09-05T06:20:25.553Z,101914.00
2018-09-05T06:22:54.722Z,101912.95
2018-09-05T06:25:23.163Z,101910.51
2018-09-05T06:27:51.687Z,101909.34
2018-09-05T06:30:20.264Z,101913.52
2018-09-05T06:32:48.973Z,101905.73
2018-09-05T06:35:18.210Z,101908.56
2018-09-05T06:37:46.751Z,101912.23
2018-09-05T06:40:15.277Z,101912.81
2018-09-05T06:42:45.625Z,101920.11
2018-09-05T06:45:14.712Z,101916.77
2018-09-05T06:47:43.173Z,101918.75
2018-09-05T06:50:11.606Z,101911.45
2018-09-05T06:52:40.069Z,101905.05
2018-09-05T06:55:08.562Z,101917.31
2018-09-05T06:57:38.637Z,101917.98
2018-09-05T07:00:10.125Z,101915.69
2018-09-05T07:02:39.368Z,101913.36
2018-09-05T07:05:08.018Z,101912.16
2018-09-05T07:07:36.521Z,101909.89
2018-09-05T07:10:05.044Z,101911.36
2018-09-05T07:12:33.757Z,101906.97
2018-09-05T07:15:02.209Z,101903.81
2018-09-05T07:17:30.634Z,101902.76
2018-09-05T07:19:59.170Z,101899.00
2018-09-05T07:22:28.189Z,101904.95
2018-09-05T07:24:56.919Z,101905.14
2018-09-05T07:27:25.363Z,101907.53
2018-09-05T07:29:53.844Z,101904.63
2018-09-05T07:32:22.273Z,101902.27
2018-09-05T07:34:50.725Z,101899.84
2018-09-05T07:37:19.982Z,101900.64
2018-09-05T07:39:48.642Z,101901.45
2018-09-05T07:42:17.188Z,101907.54
2018-09-05T07:44:45.789Z,101898.70
2018-09-05T07:47:14.213Z,101895.13
2018-09-05T07:49:42.736Z,101899.44
2018-09-05T07:52:11.175Z,101901.73
2018-09-05T07:54:39.862Z,101903.16
2018-09-05T07:57:08.366Z,101899.17
2018-09-05T07:59:36.821Z,101888.39
2018-09-05T08:02:05.277Z,101893.36
2018-09-05T08:04:33.743Z,101892.05
2018-09-05T08:07:02.310Z,101892.38
2018-09-05T08:09:30.728Z,101895.55
2018-09-05T08:11:59.205Z,101885.62
2018-09-05T08:14:27.642Z,101884.75
2018-09-05T08:16:56.274Z,101888.18
2018-09-05T08:19:24.713Z,101886.80
2018-09-05T08:21:53.173Z,101882.28
2018-09-05T08:24:22.024Z,101878.63
2018-09-05T08:26:51.249Z,101882.17
2018-09-05T08:29:19.907Z,101879.09
2018-09-05T08:31:48.234Z,101881.67
2018-09-05T08:34:18.161Z,101882.98
2018-09-05T08:36:48.120Z,101881.55
2018-09-05T08:39:16.492Z,101880.02
2018-09-05T08:41:45.029Z,101889.60
2018-09-05T08:44:13.698Z,101888.00
2018-09-05T08:46:42.057Z,101890.13
2018-09-05T08:49:10.485Z,101887.94
2018-09-05T08:51:39.861Z,101886.64
2018-09-05T08:54:08.290Z,101888.45
2018-09-05T08:56:36.721Z,101896.38
2018-09-05T08:59:05.210Z,101890.17
2018-09-05T09:01:34.218Z,101887.33
2018-09-05T09:04:37.088Z,101885.36
2018-09-05T09:07:06.913Z,101886.02
2018-09-05T09:09:35.346Z,101880.24
2018-09-05T09:12:03.897Z,101876.42
2018-09-05T09:14:33.341Z,101882.48
2018-09-05T09:17:01.841Z,101884.31
2018-09-05T09:19:30.881Z,101877.31
2018-09-05T09:21:59.813Z,101877.25
2018-09-05T09:24:29.297Z,101881.84
2018-09-05T09:26:57.977Z,101878.72
2018-09-05T09:29:26.638Z,101879.38
2018-09-05T09:31:55.124Z,101876.55
2018-09-05T09:34:23.569Z,101877.58
2018-09-05T09:36:51.991Z,101875.69
2018-09-05T09:39:20.570Z,101874.78
2018-09-05T09:41:49.351Z,101870.91
2018-09-05T09:44:17.979Z,101877.67
2018-09-05T09:46:46.610Z,101882.45
2018-09-05T09:49:15.301Z,101874.97
2018-09-05T09:51:43.742Z,101882.17
2018-09-05T09:54:12.173Z,101884.62
2018-09-05T09:56:40.689Z,101889.64
2018-09-05T09:59:09.134Z,101884.27
2018-09-05T10:01:43.269Z,101880.96
2018-09-05T10:04:16.940Z,101882.64
2018-09-05T10:06:50.882Z,101879.33
2018-09-05T10:09:24.450Z,101878.12
2018-09-05T10:14:01.541Z,101875.33
2018-09-05T10:17:36.103Z,101844.67
2018-09-05T10:20:05.925Z,101877.25
2018-09-05T10:22:35.193Z,101874.51
2018-09-05T10:25:04.485Z,101875.66
2018-09-05T10:27:33.677Z,101873.59
2018-09-05T10:30:02.137Z,101872.08
2018-09-05T10:32:30.579Z,101870.12
2018-09-05T10:34:59.610Z,101870.07
2018-09-05T10:37:29.341Z,101869.33
2018-09-05T10:39:58.464Z,101869.15
2018-09-05T10:42:27.049Z,101873.23
2018-09-05T10:44:55.518Z,101871.03
2018-09-05T10:47:24.190Z,101869.14
2018-09-05T10:49:52.925Z,101868.27
2018-09-05T10:52:21.345Z,101870.97
2018-09-05T10:54:50.482Z,101868.88
2018-09-05T10:57:19.057Z,101879.28
2018-09-05T10:59:47.470Z,101861.19
2018-09-05T11:02:16.313Z,101870.06
2018-09-05T11:04:44.869Z,101870.33
2018-09-05T11:07:13.389Z,101863.00
2018-09-05T11:09:42.008Z,101863.25
2018-09-05T11:12:10.673Z,101871.73
2018-09-05T11:14:40.697Z,101843.38
2018-09-05T11:17:10.157Z,101860.31
2018-09-05T11:19:39.376Z,101862.44
2018-09-05T11:22:08.101Z,101857.37
2018-09-05T11:24:37.073Z,101857.55
2018-09-05T11:27:06.308Z,101853.91
2018-09-05T11:29:35.317Z,101853.19
2018-09-05T11:32:03.909Z,101828.83
2018-09-05T11:34:32.835Z,101852.93
2018-09-05T11:37:02.205Z,101857.28
2018-09-05T11:39:31.516Z,101852.77
2018-09-05T11:42:00.883Z,101848.94
2018-09-05T11:44:29.374Z,101855.83
2018-09-05T11:46:57.885Z,101850.70
2018-09-05T11:49:26.468Z,101849.80
2018-09-05T11:51:54.891Z,101851.63
2018-09-05T11:54:23.619Z,101865.32
2018-09-05T11:56:52.658Z,101859.33
2018-09-05T11:59:21.176Z,101859.50
2018-09-05T12:01:50.543Z,101861.16
2018-09-05T12:04:20.485Z,101857.25
2018-09-05T12:06:48.949Z,101859.89
2018-09-05T12:09:17.770Z,101854.38
2018-09-05T12:11:46.354Z,101862.15
2018-09-05T12:14:15.093Z,101860.06
2018-09-05T12:16:44.198Z,101855.45
2018-09-05T12:19:12.663Z,101861.82
2018-09-05T12:21:42.061Z,101865.11
2018-09-05T12:24:10.897Z,101868.95
2018-09-05T12:26:39.346Z,101867.40
2018-09-05T12:29:10.464Z,101867.47
2018-09-05T12:31:39.650Z,101862.80
2018-09-05T12:34:08.077Z,101866.33
2018-09-05T12:36:36.608Z,101860.87
2018-09-05T12:39:09.013Z,101861.48
2018-09-05T12:41:37.439Z,101855.00
2018-09-05T12:44:07.105Z,101853.55
2018-09-05T12:46:35.756Z,101852.46
2018-09-05T12:49:04.177Z,101842.47
2018-09-05T12:51:32.656Z,101840.48
2018-09-05T12:54:01.529Z,101844.97
2018-09-05T12:56:30.375Z,101844.91
2018-09-05T12:58:59.257Z,101839.13
2018-09-05T13:01:27.866Z,101831.55
2018-09-05T13:03:56.417Z,101840.34
2018-09-05T13:06:24.890Z,101843.31
2018-09-05T13:08:53.577Z,101840.97
2018-09-05T13:11:22.384Z,101836.11
2018-09-05T13:13:50.818Z,101830.73
2018-09-05T13:16:20.293Z,101833.89
2018-09-05T13:18:48.770Z,101835.98
2018-09-05T13:21:17.215Z,101831.27
2018-09-05T13:23:46.185Z,101835.03
2018-09-05T13:26:14.617Z,101834.56
2018-09-05T13:28:43.599Z,101832.92
2018-09-05T13:31:13.707Z,101840.53
2018-09-05T13:33:42.299Z,101842.81
2018-09-05T13:36:10.814Z,101846.61
2018-09-05T13:38:40.378Z,101846.80
2018-09-05T13:41:08.870Z,101843.44
2018-09-05T13:43:37.363Z,101838.45
2018-09-05T13:46:05.974Z,101851.54
2018-09-05T13:48:34.386Z,101839.12
2018-09-05T13:51:02.909Z,101837.96
2018-09-05T13:53:31.478Z,101839.14
2018-09-05T13:56:00.565Z,101830.79
2018-09-05T13:58:29.572Z,101828.22
2018-09-05T14:00:58.206Z,101819.48
2018-09-05T14:03:26.977Z,101822.91
2018-09-05T14:05:55.401Z,101820.44
2018-09-05T14:08:24.058Z,101824.16
2018-09-05T14:10:52.497Z,101817.13
2018-09-05T14:13:22.046Z,101812.68
2018-09-05T14:15:50.893Z,101808.92
2018-09-05T14:18:19.655Z,101801.06
2018-09-05T14:20:48.073Z,101807.09
2018-09-05T14:23:16.997Z,101814.14
2018-09-05T14:25:45.425Z,101808.00
2018-09-05T14:28:13.845Z,101810.98
2018-09-05T14:30:42.789Z,101810.53
2018-09-05T14:33:11.248Z,101807.66
2018-09-05T14:35:40.065Z,101808.63
2018-09-05T14:38:09.312Z,101804.95
2018-09-05T14:40:38.025Z,101803.45
2018-09-05T14:43:07.256Z,101807.55
2018-09-05T14:45:36.018Z,101812.42
2018-09-05T14:48:04.576Z,101807.26
2018-09-05T14:50:33.062Z,101803.45
2018-09-05T14:53:01.593Z,101809.80
2018-09-05T14:55:31.053Z,101799.73
2018-09-05T14:57:59.993Z,101808.58
2018-09-05T15:00:29.013Z,101806.39
2018-09-05T15:02:57.525Z,101810.20
2018-09-05T15:05:25.966Z,101756.98
2018-09-05T15:07:54.818Z,101811.98
2018-09-05T15:10:23.813Z,101814.88
2018-09-05T15:12:53.834Z,101811.34
2018-09-05T15:15:23.340Z,101806.98
2018-09-05T15:17:51.815Z,101807.38
2018-09-05T15:20:20.689Z,101811.64
2018-09-05T15:22:50.102Z,101814.09
2018-09-05T15:25:18.592Z,101814.00
2018-09-05T15:27:47.359Z,101809.42
2018-09-05T15:30:15.897Z,101807.96
2018-09-05T15:32:44.318Z,101814.16
2018-09-05T15:35:12.754Z,101809.30
2018-09-05T15:37:42.603Z,101813.28
2018-09-05T15:40:11.043Z,101816.56
2018-09-05T15:42:39.488Z,101814.64
2018-09-05T15:45:08.193Z,101814.85
2018-09-05T15:47:36.618Z,101816.13
2018-09-05T15:50:05.282Z,101816.66
2018-09-05T15:52:33.818Z,101819.06
2018-09-05T15:55:02.241Z,101822.50
2018-09-05T15:57:31.636Z,101821.99
2018-09-05T16:00:02.591Z,101824.98
2018-09-05T16:02:31.747Z,101826.73
2018-09-05T16:05:01.173Z,101826.64
2018-09-05T16:07:31.369Z,101828.83
2018-09-05T16:09:59.829Z,101832.98
2018-09-05T16:12:28.266Z,101821.98
2018-09-05T16:14:56.817Z,101828.91
2018-09-05T16:17:25.772Z,101825.73
2018-09-05T16:19:54.305Z,101823.00
2018-09-05T16:22:23.090Z,101829.66
2018-09-05T16:24:51.531Z,101829.45
2018-09-05T16:27:20.909Z,101824.66
2018-09-05T16:29:49.486Z,101823.45
2018-09-05T16:32:17.914Z,101823.64
2018-09-05T16:34:46.373Z,101826.47
2018-09-05T16:37:15.033Z,101823.50
2018-09-05T16:39:43.627Z,101822.69
2018-09-05T16:42:12.066Z,101822.38
2018-09-05T16:44:41.006Z,101828.30
2018-09-05T16:47:09.430Z,101826.63
2018-09-05T16:49:38.866Z,101830.27
2018-09-05T16:52:07.973Z,101830.32
2018-09-05T16:54:36.414Z,101830.00
2018-09-05T16:57:04.994Z,101827.38
2018-09-05T16:59:33.782Z,101836.47
2018-09-05T17:02:02.374Z,101835.84
2018-09-05T17:04:30.810Z,101837.23
2018-09-05T17:06:59.345Z,101842.22
2018-09-05T17:09:27.821Z,101848.53
2018-09-05T17:11:56.256Z,101843.67
2018-09-05T17:14:25.158Z,101843.28
2018-09-05T17:16:53.585Z,101843.29
2018-09-05T17:19:22.082Z,101845.50
2018-09-05T17:21:50.905Z,101843.70
2018-09-05T17:24:19.389Z,101844.16
2018-09-05T17:26:47.846Z,101847.31
2018-09-05T17:29:16.458Z,101843.78
2018-09-05T17:31:44.892Z,101849.14
2018-09-05T17:34:13.562Z,101846.48
2018-09-05T17:36:43.021Z,101847.37
2018-09-05T17:39:12.285Z,101848.72
2018-09-05T17:41:41.535Z,101853.13
2018-09-05T17:44:10.659Z,101846.45
2018-09-05T17:46:39.137Z,101847.33
2018-09-05T17:49:08.361Z,101848.21
2018-09-05T17:51:37.349Z,101851.31
2018-09-05T17:54:06.126Z,101847.31
2018-09-05T17:56:34.896Z,101852.20
2018-09-05T17:59:03.617Z,101855.75
2018-09-05T18:01:32.122Z,101852.66
2018-09-05T18:04:00.959Z,101857.97
2018-09-05T18:06:30.109Z,101866.81
2018-09-05T18:08:58.880Z,101864.13
2018-09-05T18:11:27.344Z,101872.11
2018-09-05T18:13:55.859Z,101867.67
2018-09-05T18:16:24.318Z,101875.22
2018-09-05T18:18:52.862Z,101870.31
2018-09-05T18:21:21.548Z,101873.87
2018-09-05T18:23:50.280Z,101879.63
2018-09-05T18:26:19.326Z,101876.47
2018-09-05T18:28:47.913Z,101880.00
2018-09-05T18:31:16.390Z,101868.45
2018-09-05T18:33:44.896Z,101877.34
2018-09-05T18:36:13.371Z,101882.22
2018-09-05T18:38:41.794Z,101889.27
2018-09-05T18:41:10.260Z,101887.03
2018-09-05T18:43:38.881Z,101890.55
2018-09-05T18:46:07.427Z,101895.85
2018-09-05T18:48:36.004Z,101894.48
2018-09-05T18:51:04.873Z,101895.34
2018-09-05T18:53:33.293Z,101895.32
2018-09-05T18:56:02.005Z,101897.51
2018-09-05T18:58:30.517Z,101897.50
2018-09-05T19:00:59.492Z,101895.72
2018-09-05T19:03:28.204Z,101890.39
2018-09-05T19:05:56.722Z,101895.23
2018-09-05T19:08:25.227Z,101900.55
2018-09-05T19:10:53.737Z,101900.98
2018-09-05T19:13:22.381Z,101903.19
2018-09-05T19:15:50.834Z,101904.51
2018-09-05T19:18:20.343Z,101894.72
2018-09-05T19:20:49.005Z,101893.78
2018-09-05T19:23:17.484Z,101895.52
2018-09-05T19:25:45.997Z,101893.71
2018-09-05T19:28:14.550Z,101898.08
2018-09-05T19:30:42.990Z,101906.91
2018-09-05T19:33:11.722Z,101906.89
2018-09-05T19:35:40.560Z,101909.56
2018-09-05T19:38:08.994Z,101902.52
2018-09-05T19:40:37.462Z,101906.52
2018-09-05T19:43:06.750Z,101908.28
2018-09-05T19:45:36.477Z,101907.00
2018-09-05T19:48:05.727Z,101897.20
2018-09-05T19:50:34.645Z,101908.33
2018-09-05T19:53:03.087Z,101901.67
2018-09-05T19:55:31.625Z,101901.63
2018-09-05T19:58:00.647Z,101902.90
2018-09-05T20:00:29.895Z,101904.63
2018-09-05T20:03:00.301Z,101896.61
2018-09-05T20:05:29.123Z,101897.45
2018-09-05T20:07:57.666Z,101904.05
2018-09-05T20:10:26.246Z,101900.47
2018-09-05T20:12:55.035Z,101899.98
2018-09-05T20:15:23.517Z,101901.30
2018-09-05T20:17:53.516Z,101899.05
2018-09-05T20:20:22.450Z,101886.57
2018-09-05T20:22:50.926Z,101891.84
2018-09-05T20:25:19.385Z,101893.55
2018-09-05T20:27:47.899Z,101901.03
2018-09-05T20:30:16.515Z,101899.22
2018-09-05T20:32:44.987Z,101896.02
2018-09-05T20:35:13.516Z,101892.85
2018-09-05T20:37:41.941Z,101891.89
2018-09-05T20:40:10.474Z,101895.79
2018-09-05T20:42:39.310Z,101893.55
2018-09-05T20:45:08.298Z,101896.17
2018-09-05T20:47:37.037Z,101899.62
2018-09-05T20:50:05.602Z,101895.14
2018-09-05T20:52:34.033Z,101908.44
2018-09-05T20:55:02.637Z,101894.67
2018-09-05T20:57:31.926Z,101900.41
2018-09-05T21:00:01.300Z,101903.05
2018-09-05T21:02:30.322Z,101891.97
2018-09-05T21:04:59.262Z,101895.06
2018-09-05T21:07:28.260Z,101896.81
2018-09-05T21:09:56.874Z,101892.41
2018-09-05T21:12:25.500Z,101896.84
2018-09-05T21:14:53.922Z,101890.20
2018-09-05T21:17:22.377Z,101895.99
2018-09-05T21:19:51.129Z,101894.23
2018-09-05T21:22:19.785Z,101887.14
2018-09-05T21:24:48.641Z,101894.73
2018-09-05T21:27:17.229Z,101897.81
2018-09-05T21:29:46.485Z,101894.21
2018-09-05T21:32:14.958Z,101903.03
2018-09-05T21:34:43.557Z,101897.24
2018-09-05T21:37:11.970Z,101901.23
2018-09-05T21:39:40.430Z,101903.91
2018-09-05T21:42:09.039Z,101899.82
2018-09-05T21:44:37.462Z,101898.86
2018-09-05T21:47:06.077Z,101901.52
2018-09-05T21:49:35.042Z,101895.25
2018-09-05T21:52:03.542Z,101899.25
2018-09-05T21:54:32.400Z,101896.12
2018-09-05T21:57:00.898Z,101895.25
2018-09-05T21:59:30.352Z,101890.38
2018-09-05T22:01:59.353Z,101893.48
2018-09-05T22:04:27.865Z,101891.24
2018-09-05T22:06:56.329Z,101898.34
2018-09-05T22:09:24.943Z,101894.75
2018-09-05T22:11:53.712Z,101896.48
2018-09-05T22:14:22.163Z,101897.34
2018-09-05T22:16:51.795Z,101896.45
2018-09-05T22:19:21.517Z,101899.97
2018-09-05T22:21:49.987Z,101791.55
2018-09-05T22:24:18.457Z,101894.59
2018-09-05T22:26:47.185Z,101898.14
2018-09-05T22:29:15.633Z,101890.14
2018-09-05T22:31:44.486Z,101895.39
2018-09-05T22:34:13.009Z,101898.95
2018-09-05T22:36:41.442Z,101894.05
2018-09-05T22:39:11.120Z,101888.70
2018-09-05T22:41:39.890Z,101896.59
2018-09-05T22:44:19.570Z,101892.16
2018-09-05T22:46:59.381Z,101895.19
2018-09-05T22:52:13.720Z,101890.30
2018-09-05T22:56:59.067Z,101893.22
2018-09-05T23:00:39.066Z,101892.48
2018-09-05T23:03:23.814Z,101890.27
2018-09-05T23:06:03.621Z,101888.42
2018-09-05T23:08:40.512Z,101886.56
2018-09-05T23:11:20.839Z,101880.27
2018-09-05T23:14:31.986Z,101881.56
2018-09-05T23:19:28.977Z,101882.86
2018-09-05T23:21:57.892Z,101887.22
2018-09-05T23:24:26.394Z,101882.81
2018-09-05T23:26:55.273Z,101881.54
2018-09-05T23:29:23.721Z,101879.34
2018-09-05T23:31:53.211Z,101876.23
2018-09-05T23:34:22.885Z,101885.89
2018-09-05T23:36:51.320Z,101884.09
2018-09-05T23:39:19.793Z,101883.11
2018-09-05T23:41:48.673Z,101889.71
2018-09-05T23:44:17.518Z,101887.87
2018-09-05T23:46:45.941Z,101890.95
2018-09-05T23:49:15.309Z,101888.77
2018-09-05T23:51:43.888Z,101889.69
2018-09-05T23:54:12.841Z,101888.84
2018-09-05T23:56:42.425Z,101882.27
2018-09-05T23:59:11.184Z,101906.08
